Time;durP1;ratioP1;P1;durP2;ratioP2;P2;SDS_P1;SDS_P2;PMS_P1;PMS_P2;Temp;Humidity;BMP_temperature;BMP_pressure;BME280_temperature;BME280_humidity;BME280_pressure;Samples;Min_cycle;Max_cycle;Signal;HPM_P1;HPM_P2
2024/02/03 00:00:12;;;;;;;23.63;6.07;;;8.90;99.90;;;;;;5086953;28;20462;-81
2024/02/03 00:02:38;;;;;;;25.58;5.82;;;8.90;99.90;;;;;;5085207;28;20443;-82
2024/02/03 00:05:04;;;;;;;20.17;5.70;;;8.90;99.90;;;;;;5084689;28;20190;-81
2024/02/03 00:07:30;;;;;;;22.00;6.93;;;8.80;99.90;;;;;;5083845;28;20446;-81
2024/02/03 00:09:56;;;;;;;22.00;6.37;;;8.80;99.90;;;;;;5084386;28;20407;-81
2024/02/03 00:12:25;;;;;;;20.40;6.17;;;8.80;99.90;;;;;;5081983;28;20629;-81
2024/02/03 00:14:51;;;;;;;21.38;6.25;;;8.80;99.90;;;;;;5082986;28;20212;-81
2024/02/03 00:17:17;;;;;;;25.70;7.53;;;8.90;99.90;;;;;;5084226;28;20222;-81
2024/02/03 00:19:43;;;;;;;24.57;7.40;;;8.80;99.90;;;;;;5087627;28;20426;-81
2024/02/03 00:22:10;;;;;;;22.50;6.67;;;8.80;99.90;;;;;;5085206;28;20525;-81
2024/02/03 00:24:36;;;;;;;23.30;7.00;;;8.80;99.90;;;;;;5084913;28;20414;-81
2024/02/03 00:27:02;;;;;;;21.40;6.40;;;8.80;99.90;;;;;;5084819;28;20185;-81
2024/02/03 00:29:28;;;;;;;19.60;5.05;;;8.80;99.90;;;;;;5085042;28;20153;-81
2024/02/03 00:31:54;;;;;;;22.97;7.23;;;8.80;99.90;;;;;;5087731;28;20165;-81
2024/02/03 00:34:20;;;;;;;20.70;6.27;;;8.80;99.90;;;;;;5088712;28;20160;-81
2024/02/03 00:36:45;;;;;;;21.70;6.57;;;8.80;99.90;;;;;;5090049;28;20476;-81
2024/02/03 00:39:11;;;;;;;20.97;6.70;;;8.80;99.90;;;;;;5069687;28;20172;-81
2024/02/03 00:41:37;;;;;;;23.33;6.47;;;8.80;99.90;;;;;;5088226;28;20652;-82
2024/02/03 00:44:03;;;;;;;25.73;7.00;;;8.70;99.90;;;;;;5090596;28;20185;-81
2024/02/03 00:46:28;;;;;;;23.30;6.60;;;8.80;99.90;;;;;;5090743;28;20395;-82
2024/02/03 00:48:54;;;;;;;19.87;6.00;;;8.80;99.90;;;;;;5090817;28;20160;-81
2024/02/03 00:51:20;;;;;;;19.83;5.80;;;8.80;99.90;;;;;;5071927;28;20192;-81
2024/02/03 00:53:46;;;;;;;22.90;7.03;;;8.80;99.90;;;;;;5090021;28;20179;-81
2024/02/03 00:56:11;;;;;;;21.23;5.30;;;8.80;99.90;;;;;;5091502;28;20169;-81
2024/02/03 00:58:37;;;;;;;20.10;5.23;;;8.80;99.90;;;;;;5090634;28;20184;-81
2024/02/03 01:01:03;;;;;;;20.53;5.17;;;8.80;99.90;;;;;;5088981;28;20164;-81
2024/02/03 01:03:30;;;;;;;19.58;5.50;;;8.80;99.90;;;;;;5089486;28;20185;-81
2024/02/03 01:05:55;;;;;;;20.20;5.97;;;8.80;99.90;;;;;;5090569;28;20161;-81
2024/02/03 01:08:21;;;;;;;21.43;6.07;;;8.80;99.90;;;;;;5090334;28;20200;-81
2024/02/03 01:10:47;;;;;;;21.17;5.93;;;8.80;99.90;;;;;;5074551;28;20173;-81
2024/02/03 01:13:13;;;;;;;20.17;5.43;;;8.80;99.90;;;;;;5088215;28;20193;-81
2024/02/03 01:15:38;;;;;;;18.50;5.03;;;8.80;99.90;;;;;;5089503;28;20645;-81
2024/02/03 01:18:04;;;;;;;20.97;6.80;;;8.80;99.90;;;;;;5088293;28;20430;-81
2024/02/03 01:20:32;;;;;;;21.20;5.90;;;8.80;99.90;;;;;;5087801;28;20410;-81
2024/02/03 01:22:58;;;;;;;20.25;5.53;;;8.80;99.90;;;;;;5087766;28;20192;-81
2024/02/03 01:25:24;;;;;;;21.17;4.90;;;8.80;99.90;;;;;;5087483;28;20161;-81
2024/02/03 01:27:50;;;;;;;20.77;4.80;;;8.80;99.90;;;;;;5085849;28;20244;-81
2024/02/03 01:30:16;;;;;;;19.67;5.50;;;8.80;99.90;;;;;;5085892;28;20161;-81
2024/02/03 01:32:42;;;;;;;22.23;4.85;;;8.80;99.90;;;;;;5088180;28;20160;-81
2024/02/03 01:35:08;;;;;;;20.10;4.77;;;8.80;99.90;;;;;;5067493;28;20178;-81
2024/02/03 01:37:36;;;;;;;18.75;4.60;;;8.80;99.90;;;;;;5084324;28;20184;-81
2024/02/03 01:40:03;;;;;;;19.50;4.70;;;8.80;99.90;;;;;;5088882;28;20171;-81
2024/02/03 01:42:29;;;;;;;18.15;4.50;;;8.80;99.90;;;;;;5086635;28;20606;-81
2024/02/03 01:44:55;;;;;;;17.47;4.20;;;8.80;99.90;;;;;;5083033;28;20164;-81
2024/02/03 01:47:21;;;;;;;17.90;4.20;;;8.80;99.90;;;;;;5063610;28;20275;-81
2024/02/03 01:49:49;;;;;;;19.75;4.18;;;8.80;99.90;;;;;;5064945;28;20418;-81
2024/02/03 01:52:16;;;;;;;18.98;4.55;;;8.80;99.90;;;;;;5086086;28;20172;-82
2024/02/03 01:54:43;;;;;;;18.45;4.50;;;8.80;99.90;;;;;;5085260;28;20240;-82
2024/02/03 01:57:09;;;;;;;18.48;4.78;;;8.80;99.90;;;;;;5067847;28;20189;-81
2024/02/03 01:59:35;;;;;;;19.27;4.93;;;8.80;99.90;;;;;;5066995;28;20168;-81
2024/02/03 02:02:01;;;;;;;18.57;4.33;;;8.80;99.90;;;;;;5067499;28;20165;-81
2024/02/03 02:04:28;;;;;;;19.42;4.85;;;8.70;99.90;;;;;;5065157;28;20505;-81
2024/02/03 02:06:54;;;;;;;19.42;4.43;;;8.70;99.90;;;;;;5066340;28;20203;-82
2024/02/03 02:09:21;;;;;;;19.85;4.85;;;8.70;99.90;;;;;;5065391;28;20180;-81
2024/02/03 02:11:47;;;;;;;19.38;5.05;;;8.80;99.90;;;;;;5082164;28;20597;-81
2024/02/03 02:14:14;;;;;;;19.50;4.90;;;8.80;99.90;;;;;;5082626;28;20168;-80
2024/02/03 02:16:39;;;;;;;19.70;5.50;;;8.80;99.90;;;;;;5083127;28;20399;-81
2024/02/03 02:19:05;;;;;;;18.33;4.20;;;8.80;99.90;;;;;;5064662;28;20171;-81
2024/02/03 02:21:31;;;;;;;21.90;5.60;;;8.80;99.90;;;;;;5081925;28;20175;-80
2024/02/03 02:23:57;;;;;;;20.87;4.70;;;8.80;99.90;;;;;;5081309;28;20249;-81
2024/02/03 02:26:25;;;;;;;20.27;4.90;;;8.80;99.90;;;;;;5083532;28;20634;-79
2024/02/03 02:28:52;;;;;;;19.13;5.18;;;8.90;99.90;;;;;;5080048;28;20164;-80
2024/02/03 02:31:17;;;;;;;18.25;4.30;;;8.90;99.90;;;;;;5064491;28;20711;-81
2024/02/03 02:33:43;;;;;;;18.37;4.53;;;8.90;99.90;;;;;;5082959;28;20172;-81
2024/02/03 02:36:09;;;;;;;17.50;4.20;;;8.90;99.90;;;;;;5082161;28;20597;-81
2024/02/03 02:38:35;;;;;;;17.47;3.97;;;8.90;99.90;;;;;;5081037;28;20189;-80
2024/02/03 02:41:00;;;;;;;20.20;4.40;;;8.80;99.90;;;;;;5077530;28;20414;-79
2024/02/03 02:43:26;;;;;;;20.20;4.83;;;8.80;99.90;;;;;;5076851;28;20193;-79
2024/02/03 02:45:52;;;;;;;19.87;5.13;;;8.90;99.90;;;;;;5077064;28;20168;-81
2024/02/03 02:48:18;;;;;;;19.17;5.13;;;8.90;99.90;;;;;;5082765;28;20224;-80
2024/02/03 02:50:44;;;;;;;18.50;5.27;;;8.90;99.90;;;;;;5080805;28;20403;-81
2024/02/03 02:53:10;;;;;;;20.55;5.28;;;8.90;99.90;;;;;;5080681;28;20525;-81
2024/02/03 02:55:35;;;;;;;17.53;4.70;;;8.90;99.90;;;;;;5076599;28;20160;-80
2024/02/03 02:58:01;;;;;;;17.87;4.53;;;8.90;99.90;;;;;;5077945;28;20180;-79
2024/02/03 03:00:27;;;;;;;20.13;5.10;;;9.00;99.90;;;;;;5076937;28;20164;-80
2024/02/03 03:02:53;;;;;;;19.87;5.27;;;8.90;99.90;;;;;;5077536;28;20199;-80
2024/02/03 03:05:18;;;;;;;18.97;5.00;;;8.90;99.90;;;;;;5076317;28;20403;-80
2024/02/03 03:07:44;;;;;;;19.80;4.50;;;8.90;99.90;;;;;;5076021;28;20443;-79
2024/02/03 03:10:10;;;;;;;17.80;4.20;;;8.90;99.90;;;;;;5076259;28;20248;-79
2024/02/03 03:12:45;;;;;;;18.60;4.63;;;8.90;99.90;;;;;;5084438;28;20967;-82
2024/02/03 03:15:11;;;;;;;19.52;4.70;;;8.90;99.90;;;;;;5065332;28;20478;-82
2024/02/03 03:17:40;;;;;;;17.70;4.17;;;8.90;99.90;;;;;;5077453;28;20267;-80
2024/02/03 03:20:07;;;;;;;18.48;4.32;;;9.00;99.90;;;;;;5057426;28;20406;-80
2024/02/03 03:22:33;;;;;;;18.25;4.75;;;8.90;99.90;;;;;;5075186;28;20188;-79
2024/02/03 03:24:58;;;;;;;18.50;3.93;;;8.90;99.90;;;;;;5075250;28;20183;-80
2024/02/03 03:27:24;;;;;;;17.90;4.10;;;8.90;99.90;;;;;;5075363;28;20179;-80
2024/02/03 03:29:50;;;;;;;17.80;4.33;;;8.90;99.90;;;;;;5076392;28;20156;-80
2024/02/03 03:32:16;;;;;;;18.23;4.30;;;8.90;99.90;;;;;;5073926;28;20667;-79
2024/02/03 03:34:41;;;;;;;18.17;4.37;;;8.90;99.90;;;;;;5075268;28;20395;-81
2024/02/03 03:37:08;;;;;;;18.07;3.63;;;8.90;99.90;;;;;;5074516;28;20188;-79
2024/02/03 03:39:33;;;;;;;16.95;4.35;;;8.90;99.90;;;;;;5060027;28;20407;-80
2024/02/03 03:41:59;;;;;;;18.37;4.33;;;8.90;99.90;;;;;;5075704;28;20652;-79
2024/02/03 03:44:25;;;;;;;19.07;4.60;;;8.90;99.90;;;;;;5058522;28;20277;-81
2024/02/03 03:46:51;;;;;;;18.10;3.93;;;8.90;99.90;;;;;;5066641;28;20193;-82
2024/02/03 03:49:18;;;;;;;17.77;4.20;;;8.90;99.90;;;;;;5080603;28;20248;-81
2024/02/03 03:51:49;;;;;;;19.17;5.03;;;9.00;99.90;;;;;;5062979;28;20411;-82
2024/02/03 03:54:15;;;;;;;18.75;4.20;;;8.90;99.90;;;;;;5084367;28;20172;-82
2024/02/03 03:56:40;;;;;;;17.83;4.20;;;8.90;99.90;;;;;;5083391;28;20554;-81
2024/02/03 03:59:06;;;;;;;17.47;3.30;;;9.00;99.90;;;;;;5066697;28;20225;-81
2024/02/03 04:01:35;;;;;;;17.50;4.03;;;9.00;99.90;;;;;;5085191;28;20164;-82
2024/02/03 04:04:07;;;;;;;18.10;3.90;;;9.00;99.90;;;;;;5083175;28;20248;-81
2024/02/03 04:06:32;;;;;;;18.13;3.45;;;9.00;99.90;;;;;;5089527;28;20171;-81
2024/02/03 04:08:58;;;;;;;18.90;4.40;;;9.00;99.90;;;;;;5092685;28;20168;-81
2024/02/03 04:11:24;;;;;;;17.63;3.43;;;9.00;99.90;;;;;;5094152;28;20191;-81
2024/02/03 04:13:50;;;;;;;17.50;4.40;;;9.00;99.90;;;;;;5075087;28;20514;-81
2024/02/03 04:16:21;;;;;;;19.02;4.13;;;9.00;99.90;;;;;;5087786;28;20175;-81
2024/02/03 04:18:48;;;;;;;17.33;3.88;;;9.00;99.90;;;;;;5071991;28;20283;-82
2024/02/03 04:21:14;;;;;;;16.92;3.20;;;9.00;99.90;;;;;;5090104;28;20165;-83
2024/02/03 04:23:40;;;;;;;18.57;3.50;;;9.00;99.90;;;;;;5090760;28;20196;-83
2024/02/03 04:26:05;;;;;;;17.20;3.37;;;9.00;99.90;;;;;;5089896;28;20517;-83
2024/02/03 04:28:34;;;;;;;17.83;3.37;;;9.00;99.90;;;;;;5089526;28;20422;-83
2024/02/03 04:31:03;;;;;;;17.45;3.47;;;9.00;99.90;;;;;;5072017;28;20413;-83
2024/02/03 04:33:36;;;;;;;16.73;3.30;;;9.00;99.90;;;;;;5092219;28;20560;-82
2024/02/03 04:36:06;;;;;;;17.90;3.17;;;9.10;99.90;;;;;;5084733;28;20544;-80
2024/02/03 04:38:31;;;;;;;17.50;3.47;;;9.10;99.90;;;;;;5062900;28;20183;-80
2024/02/03 04:40:57;;;;;;;18.30;3.70;;;9.10;99.90;;;;;;5081269;28;20179;-80
2024/02/03 04:43:23;;;;;;;16.23;2.83;;;9.00;99.90;;;;;;5081577;28;20279;-80
2024/02/03 04:45:48;;;;;;;16.50;3.17;;;9.00;99.90;;;;;;5064317;28;20172;-82
2024/02/03 04:48:15;;;;;;;16.30;2.60;;;9.00;99.90;;;;;;5081989;28;20187;-80
2024/02/03 04:50:40;;;;;;;17.45;2.92;;;9.00;99.90;;;;;;5081264;28;20517;-80
2024/02/03 04:53:07;;;;;;;17.23;3.00;;;9.10;99.90;;;;;;5080728;28;20157;-80
2024/02/03 04:55:33;;;;;;;15.40;2.65;;;9.10;99.90;;;;;;5062901;28;20168;-80
2024/02/03 04:57:59;;;;;;;16.10;2.90;;;9.10;99.90;;;;;;5080951;28;20194;-81
2024/02/03 05:00:24;;;;;;;15.13;2.23;;;9.10;99.90;;;;;;5062922;28;20168;-81
2024/02/03 05:02:50;;;;;;;15.80;2.67;;;9.10;99.90;;;;;;5081376;28;20196;-81
2024/02/03 05:05:16;;;;;;;16.40;3.00;;;9.10;99.90;;;;;;5081335;28;20165;-80
2024/02/03 05:07:43;;;;;;;18.43;3.70;;;9.20;99.90;;;;;;5081376;28;20226;-80
2024/02/03 05:10:09;;;;;;;17.13;3.17;;;9.20;99.90;;;;;;5081054;28;20247;-80
2024/02/03 05:12:35;;;;;;;17.60;3.63;;;9.10;99.90;;;;;;5081701;28;20200;-80
2024/02/03 05:15:00;;;;;;;18.60;3.40;;;9.20;99.90;;;;;;5062540;28;20422;-80
2024/02/03 05:17:26;;;;;;;15.40;2.70;;;9.20;99.90;;;;;;5078293;28;20707;-80
2024/02/03 05:19:52;;;;;;;22.50;2.60;;;9.10;99.90;;;;;;5077272;28;20237;-80
2024/02/03 05:22:17;;;;;;;17.07;3.73;;;9.20;99.90;;;;;;5077307;28;20168;-80
2024/02/03 05:24:43;;;;;;;17.03;3.43;;;9.20;99.90;;;;;;5077005;28;20169;-80
2024/02/03 05:27:08;;;;;;;16.90;3.40;;;9.30;99.90;;;;;;5077131;28;20220;-80
2024/02/03 05:29:34;;;;;;;17.37;3.40;;;9.20;99.90;;;;;;5077090;28;20157;-80
2024/02/03 05:32:00;;;;;;;17.00;3.60;;;9.20;99.90;;;;;;5077077;28;20160;-80
2024/02/03 05:34:25;;;;;;;21.00;3.03;;;9.20;99.90;;;;;;5077087;28;20255;-80
2024/02/03 05:36:51;;;;;;;16.67;2.70;;;9.20;99.90;;;;;;5076936;28;20223;-81
2024/02/03 05:39:17;;;;;;;17.80;3.33;;;9.20;99.90;;;;;;5059431;28;20181;-80
2024/02/03 05:41:42;;;;;;;15.90;2.77;;;9.20;99.90;;;;;;5059994;28;20179;-80
2024/02/03 05:44:11;;;;;;;17.13;3.27;;;9.30;99.90;;;;;;5059273;28;20253;-80
2024/02/03 05:46:36;;;;;;;17.67;3.13;;;9.30;99.90;;;;;;5076777;28;20541;-81
2024/02/03 05:49:02;;;;;;;16.00;2.93;;;9.30;99.90;;;;;;5059574;28;20165;-80
2024/02/03 05:51:27;;;;;;;16.60;3.20;;;9.30;99.90;;;;;;5077623;28;20164;-81
2024/02/03 05:53:55;;;;;;;17.03;2.70;;;9.30;99.90;;;;;;5077535;28;20273;-80
2024/02/03 05:56:20;;;;;;;15.48;2.50;;;9.30;99.90;;;;;;5077024;28;20576;-80
2024/02/03 05:58:46;;;;;;;16.03;2.50;;;9.30;99.90;;;;;;5076921;28;20270;-81
2024/02/03 06:01:12;;;;;;;17.40;3.23;;;9.30;99.90;;;;;;5077033;28;20175;-80
2024/02/03 06:03:37;;;;;;;16.90;3.30;;;9.30;99.90;;;;;;5076941;28;20191;-80
2024/02/03 06:06:03;;;;;;;16.57;2.70;;;9.30;99.90;;;;;;5076530;28;20157;-80
2024/02/03 06:08:29;;;;;;;16.93;3.00;;;9.30;99.90;;;;;;5057422;28;20219;-79
2024/02/03 06:10:54;;;;;;;16.53;2.43;;;9.40;99.90;;;;;;5076500;28;20157;-79
2024/02/03 06:13:21;;;;;;;16.17;2.70;;;9.40;99.90;;;;;;5076397;28;20175;-80
2024/02/03 06:15:47;;;;;;;15.00;1.95;;;9.40;99.90;;;;;;5076155;28;20175;-80
2024/02/03 06:18:13;;;;;;;15.80;2.55;;;9.40;99.90;;;;;;5058279;28;20189;-79
2024/02/03 06:20:38;;;;;;;15.50;2.60;;;9.40;99.90;;;;;;5076047;28;20168;-80
2024/02/03 06:23:04;;;;;;;17.40;3.00;;;9.50;99.90;;;;;;5076256;28;20200;-80
2024/02/03 06:25:30;;;;;;;15.80;3.00;;;9.40;99.90;;;;;;5076171;28;20157;-80
2024/02/03 06:27:55;;;;;;;16.33;2.80;;;9.50;99.90;;;;;;5058727;28;20192;-80
2024/02/03 06:30:21;;;;;;;15.50;2.57;;;9.50;99.90;;;;;;5057465;28;20164;-80
2024/02/03 06:32:47;;;;;;;17.33;3.17;;;9.50;99.90;;;;;;5059097;28;20176;-79
2024/02/03 06:35:13;;;;;;;15.63;2.90;;;9.50;99.90;;;;;;5076546;28;20168;-80
2024/02/03 06:37:38;;;;;;;17.30;3.07;;;9.50;99.90;;;;;;5058975;28;20427;-80
2024/02/03 06:40:04;;;;;;;17.93;3.70;;;9.60;99.90;;;;;;5076714;28;20532;-80
2024/02/03 06:42:30;;;;;;;17.05;2.78;;;9.50;99.90;;;;;;5076774;28;20222;-80
2024/02/03 06:44:56;;;;;;;17.87;3.10;;;9.50;99.90;;;;;;5076945;28;20526;-80
2024/02/03 06:47:21;;;;;;;15.87;2.53;;;9.60;99.90;;;;;;5076621;28;20706;-80
2024/02/03 06:49:47;;;;;;;16.70;3.00;;;9.50;99.90;;;;;;5076958;28;20157;-80
2024/02/03 06:52:13;;;;;;;15.70;3.07;;;9.60;99.90;;;;;;5076081;28;20161;-80
2024/02/03 06:54:38;;;;;;;18.93;3.93;;;9.60;99.90;;;;;;5077081;28;20161;-80
2024/02/03 06:57:04;;;;;;;17.20;3.20;;;9.60;99.90;;;;;;5076886;28;20184;-80
2024/02/03 06:59:30;;;;;;;18.07;3.13;;;9.60;99.90;;;;;;5058256;28;20641;-80
2024/02/03 07:01:55;;;;;;;17.30;3.43;;;9.60;99.90;;;;;;5059802;28;20250;-80
2024/02/03 07:04:21;;;;;;;16.10;2.47;;;9.60;99.90;;;;;;5077284;28;20223;-80
2024/02/03 07:06:47;;;;;;;16.80;3.90;;;9.60;99.90;;;;;;5058800;28;20180;-79
2024/02/03 07:09:12;;;;;;;15.90;2.57;;;9.60;99.90;;;;;;5076774;28;20618;-80
2024/02/03 07:11:38;;;;;;;16.70;3.00;;;9.60;99.90;;;;;;5077100;28;20239;-80
2024/02/03 07:14:04;;;;;;;16.30;2.97;;;9.60;99.90;;;;;;5077189;28;20522;-80
2024/02/03 07:16:29;;;;;;;16.07;3.03;;;9.70;99.90;;;;;;5059326;28;20175;-80
2024/02/03 07:18:55;;;;;;;18.87;3.30;;;9.60;99.90;;;;;;5076377;28;20243;-80
2024/02/03 07:21:21;;;;;;;15.60;2.43;;;9.70;99.90;;;;;;5076510;28;20164;-80
2024/02/03 07:23:46;;;;;;;15.77;2.60;;;9.70;99.90;;;;;;5076800;28;20289;-80
2024/02/03 07:26:12;;;;;;;16.07;2.90;;;9.70;99.90;;;;;;5058161;28;20169;-80
2024/02/03 07:28:38;;;;;;;16.37;3.17;;;9.70;99.90;;;;;;5076567;28;20410;-80
2024/02/03 07:31:03;;;;;;;16.70;3.00;;;9.70;99.90;;;;;;5075581;28;20161;-79
2024/02/03 07:33:29;;;;;;;15.47;2.33;;;9.70;99.90;;;;;;5077151;28;20243;-80
2024/02/03 07:35:55;;;;;;;16.37;2.77;;;9.70;99.90;;;;;;5076204;28;20170;-80
2024/02/03 07:38:20;;;;;;;15.27;2.40;;;9.70;99.90;;;;;;5077147;28;20211;-80
2024/02/03 07:40:46;;;;;;;16.20;2.43;;;9.70;99.90;;;;;;5077456;28;20588;-80
2024/02/03 07:43:11;;;;;;;17.73;2.57;;;9.70;99.90;;;;;;5076897;28;20599;-80
2024/02/03 07:45:37;;;;;;;15.60;2.67;;;9.80;99.90;;;;;;5077325;28;20216;-80
2024/02/03 07:48:03;;;;;;;15.67;2.60;;;9.80;99.90;;;;;;5077213;28;20191;-79
2024/02/03 07:50:29;;;;;;;17.17;2.75;;;9.90;99.90;;;;;;5058597;28;20168;-80
2024/02/03 07:52:56;;;;;;;14.70;2.03;;;9.90;99.90;;;;;;5077257;28;20168;-81
2024/02/03 07:55:21;;;;;;;15.73;2.38;;;9.90;99.90;;;;;;5077400;28;20156;-81
2024/02/03 07:57:47;;;;;;;16.93;2.87;;;9.90;99.90;;;;;;5058370;28;20745;-80
2024/02/03 08:00:13;;;;;;;16.57;3.40;;;9.90;99.90;;;;;;5077640;28;20164;-80
2024/02/03 08:02:38;;;;;;;15.30;2.23;;;10.00;99.90;;;;;;5059279;28;20210;-80
2024/02/03 08:05:04;;;;;;;17.80;2.77;;;10.00;99.90;;;;;;5078672;28;20406;-80
2024/02/03 08:07:30;;;;;;;16.20;2.50;;;9.90;99.90;;;;;;5058932;28;20235;-80
2024/02/03 08:09:56;;;;;;;16.07;2.80;;;9.90;99.90;;;;;;5077415;28;20474;-81
2024/02/03 08:12:21;;;;;;;15.50;2.77;;;10.00;99.90;;;;;;5059742;28;20712;-80
2024/02/03 08:14:47;;;;;;;15.97;2.50;;;10.00;99.90;;;;;;5077098;28;20156;-80
2024/02/03 08:17:12;;;;;;;15.10;2.33;;;10.10;99.90;;;;;;5059509;28;20188;-80
2024/02/03 08:19:39;;;;;;;16.50;2.57;;;10.10;99.90;;;;;;5076685;28;20667;-80
2024/02/03 08:22:05;;;;;;;19.17;2.53;;;10.10;99.90;;;;;;5077151;28;20683;-80
2024/02/03 08:24:31;;;;;;;18.10;2.78;;;10.20;99.90;;;;;;5078478;28;20722;-80
2024/02/03 08:26:57;;;;;;;16.17;2.50;;;10.20;99.90;;;;;;5077198;28;20259;-80
2024/02/03 08:29:23;;;;;;;16.20;3.20;;;10.20;99.90;;;;;;5059146;28;20168;-80
2024/02/03 08:31:48;;;;;;;16.27;2.60;;;10.30;99.90;;;;;;5042690;28;20486;-80
2024/02/03 08:34:14;;;;;;;17.00;3.47;;;10.30;99.90;;;;;;5076794;28;20216;-80
2024/02/03 08:36:40;;;;;;;17.47;2.43;;;10.30;99.90;;;;;;5042908;28;20172;-82
2024/02/03 08:39:05;;;;;;;15.80;2.20;;;10.40;99.90;;;;;;5077556;28;20207;-81
2024/02/03 08:41:31;;;;;;;14.60;2.30;;;10.40;99.90;;;;;;5078796;28;20188;-81
2024/02/03 08:43:57;;;;;;;18.87;2.90;;;10.50;99.90;;;;;;5059710;28;20219;-80
2024/02/03 08:46:22;;;;;;;16.10;2.60;;;10.50;99.90;;;;;;5079173;28;20228;-81
2024/02/03 08:48:48;;;;;;;15.20;2.38;;;10.50;99.90;;;;;;5043436;28;20176;-79
2024/02/03 08:51:17;;;;;;;15.27;2.50;;;10.60;99.90;;;;;;5076714;28;20226;-81
2024/02/03 08:53:43;;;;;;;18.00;2.60;;;10.60;99.90;;;;;;5078701;28;20179;-81
2024/02/03 08:56:08;;;;;;;16.10;2.97;;;10.60;99.90;;;;;;5080503;28;20165;-79
2024/02/03 08:58:35;;;;;;;15.07;2.30;;;10.70;99.90;;;;;;5080804;28;20196;-81
2024/02/03 09:01:00;;;;;;;15.70;2.70;;;10.70;99.90;;;;;;5079857;28;20221;-80
2024/02/03 09:03:27;;;;;;;19.00;2.55;;;10.70;99.90;;;;;;5079514;28;20203;-81
2024/02/03 09:05:53;;;;;;;15.50;2.80;;;10.70;99.90;;;;;;5082406;28;20164;-81
2024/02/03 09:08:19;;;;;;;17.10;2.80;;;10.70;99.90;;;;;;5062914;28;20769;-80
2024/02/03 09:10:45;;;;;;;16.05;2.60;;;10.70;99.90;;;;;;5063136;28;20172;-80
2024/02/03 09:13:11;;;;;;;16.17;3.08;;;10.80;99.90;;;;;;5067012;28;20263;-81
2024/02/03 09:15:38;;;;;;;15.23;2.58;;;10.80;99.90;;;;;;5084005;28;20622;-81
2024/02/03 09:18:04;;;;;;;15.15;2.65;;;10.80;99.90;;;;;;5050067;28;20201;-82
2024/02/03 09:20:30;;;;;;;21.63;3.42;;;10.80;99.90;;;;;;5071877;28;20168;-83
2024/02/03 09:23:05;;;;;;;16.52;2.88;;;10.80;99.90;;;;;;5092889;28;20181;-83
2024/02/03 09:25:31;;;;;;;16.25;3.70;;;10.90;99.90;;;;;;5073839;28;20210;-82
2024/02/03 09:27:57;;;;;;;14.85;2.55;;;10.90;99.90;;;;;;5052728;28;20196;-81
2024/02/03 09:30:23;;;;;;;17.27;3.05;;;10.90;99.90;;;;;;5086500;28;20172;-81
2024/02/03 09:32:49;;;;;;;17.33;3.10;;;10.90;99.90;;;;;;5089156;28;20718;-82
2024/02/03 09:35:15;;;;;;;16.67;3.60;;;10.90;99.90;;;;;;5090299;28;20168;-82
2024/02/03 09:37:46;;;;;;;16.50;3.75;;;10.90;99.90;;;;;;5411904;23;20220;-83
2024/02/03 09:40:21;;;;;;;16.00;3.30;;;11.00;99.90;;;;;;5092478;28;20183;-82
2024/02/03 09:42:51;;;;;;;18.80;3.35;;;11.00;99.90;;;;;;5091065;28;20148;-82
2024/02/03 09:45:18;;;;;;;16.75;3.20;;;11.10;99.90;;;;;;5081519;28;20153;-80
2024/02/03 09:47:46;;;;;;;17.60;3.20;;;11.10;99.90;;;;;;5083173;28;20192;-83
2024/02/03 09:50:12;;;;;;;19.45;3.75;;;11.20;99.90;;;;;;5087567;28;20168;-83
2024/02/03 09:52:39;;;;;;;16.87;3.40;;;11.20;99.90;;;;;;5071789;28;20164;-82
2024/02/03 09:55:06;;;;;;;16.17;3.17;;;11.20;99.90;;;;;;5072296;28;20406;-83
2024/02/03 09:57:32;;;;;;;19.25;3.38;;;11.20;99.90;;;;;;5084450;28;20200;-81
2024/02/03 09:59:59;;;;;;;16.52;3.03;;;11.30;99.90;;;;;;5048993;28;20164;-80
2024/02/03 10:02:25;;;;;;;22.77;4.80;;;11.30;99.90;;;;;;5063575;28;20256;-79
2024/02/03 10:04:52;;;;;;;15.93;3.03;;;11.30;99.90;;;;;;5083113;28;20184;-80
2024/02/03 10:07:19;;;;;;;20.02;2.90;;;11.30;99.90;;;;;;5065421;28;20835;-81
2024/02/03 10:09:46;;;;;;;16.35;3.55;;;11.40;99.90;;;;;;5084205;28;20156;-80
2024/02/03 10:12:25;;;;;;;15.85;2.95;;;11.40;99.90;;;;;;5082557;28;20157;-81
2024/02/03 10:15:02;;;;;;;17.63;2.67;;;11.30;99.90;;;;;;5065228;28;20161;-81
2024/02/03 10:17:28;;;;;;;19.92;2.90;;;11.20;99.90;;;;;;5082553;28;20255;-81
2024/02/03 10:19:54;;;;;;;17.55;3.05;;;11.20;99.90;;;;;;5083008;28;20156;-81
2024/02/03 10:22:20;;;;;;;17.63;3.60;;;11.20;99.90;;;;;;5082747;28;20176;-79
2024/02/03 10:24:45;;;;;;;15.83;3.00;;;11.10;99.90;;;;;;5084480;28;20169;-80
2024/02/03 10:27:11;;;;;;;16.87;3.20;;;11.00;99.90;;;;;;5083751;28;20184;-80
2024/02/03 10:29:37;;;;;;;17.30;2.97;;;11.00;99.90;;;;;;5072905;28;20216;-80
2024/02/03 10:32:03;;;;;;;18.70;3.80;;;10.90;99.90;;;;;;5075415;28;20165;-82
2024/02/03 10:34:31;;;;;;;16.48;3.13;;;10.80;99.90;;;;;;5075609;28;20197;-80
2024/02/03 10:36:57;;;;;;;16.23;2.85;;;10.90;99.90;;;;;;5093347;28;20180;-83
2024/02/03 10:39:23;;;;;;;16.23;2.90;;;10.90;99.90;;;;;;5056534;28;20546;-81
2024/02/03 10:41:51;;;;;;;16.20;3.60;;;10.90;99.90;;;;;;5090511;28;20157;-82
2024/02/03 10:44:24;;;;;;;15.40;2.63;;;10.90;99.90;;;;;;5091438;28;20168;-81
2024/02/03 10:46:59;;;;;;;17.27;3.88;;;10.90;99.90;;;;;;5091049;28;20253;-82
2024/02/03 10:49:33;;;;;;;15.40;2.92;;;11.00;99.90;;;;;;5089833;28;20148;-82
2024/02/03 10:52:10;;;;;;;18.70;3.78;;;11.10;99.90;;;;;;5087482;28;20161;-82
2024/02/03 10:54:37;;;;;;;17.35;3.60;;;11.20;99.90;;;;;;5070520;28;20187;-82
2024/02/03 10:57:05;;;;;;;15.65;2.75;;;11.30;99.90;;;;;;5089038;28;20565;-82
2024/02/03 10:59:31;;;;;;;16.70;3.20;;;11.40;99.90;;;;;;5088479;28;20149;-82
2024/02/03 11:01:57;;;;;;;15.55;2.65;;;11.40;99.90;;;;;;5088810;28;20176;-82
2024/02/03 11:04:22;;;;;;;18.33;3.63;;;11.40;99.90;;;;;;5088157;28;20173;-82
2024/02/03 11:06:48;;;;;;;16.00;3.13;;;11.30;99.90;;;;;;5087737;28;20184;-82
2024/02/03 11:09:20;;;;;;;15.50;2.93;;;11.30;99.90;;;;;;5088143;28;20169;-82
2024/02/03 11:11:54;;;;;;;17.70;3.08;;;11.20;99.90;;;;;;5089056;28;20156;-82
2024/02/03 11:14:22;;;;;;;16.90;3.60;;;11.30;99.90;;;;;;5089307;28;20228;-81
2024/02/03 11:16:55;;;;;;;16.17;3.10;;;11.30;99.90;;;;;;5088374;28;20207;-82
2024/02/03 11:19:47;;;;;;;15.20;2.67;;;11.30;99.90;;;;;;5089858;28;20175;-82
2024/02/03 11:22:17;;;;;;;17.05;3.80;;;11.30;99.90;;;;;;5085791;28;20236;-82
2024/02/03 11:24:43;;;;;;;19.85;3.67;;;11.30;99.90;;;;;;5085909;28;20144;-82
2024/02/03 11:27:09;;;;;;;16.55;3.03;;;11.30;99.90;;;;;;5089762;28;20216;-82
2024/02/03 11:29:36;;;;;;;15.90;3.30;;;11.30;99.90;;;;;;5070372;28;20172;-82
2024/02/03 11:32:05;;;;;;;15.95;3.47;;;11.40;99.90;;;;;;5089616;28;20168;-83
2024/02/03 11:34:32;;;;;;;16.55;3.20;;;11.50;99.90;;;;;;5089260;28;20215;-82
2024/02/03 11:36:59;;;;;;;16.08;3.40;;;11.60;99.90;;;;;;5087517;28;20180;-82
2024/02/03 11:39:38;;;;;;;16.65;3.67;;;11.70;99.90;;;;;;5087431;28;20534;-83
2024/02/03 11:42:05;;;;;;;16.17;3.45;;;11.80;99.90;;;;;;5071487;28;20250;-83
2024/02/03 11:44:46;;;;;;;15.65;2.55;;;11.80;99.90;;;;;;5085037;28;20164;-82
2024/02/03 11:47:18;;;;;;;18.65;3.83;;;11.80;99.90;;;;;;5071159;28;20196;-83
2024/02/03 11:49:48;;;;;;;18.10;3.10;;;11.80;99.90;;;;;;5089818;28;20148;-83
2024/02/03 11:52:14;;;;;;;16.65;2.92;;;11.90;99.90;;;;;;5071727;28;20172;-83
2024/02/03 11:54:40;;;;;;;15.80;3.20;;;12.00;99.90;;;;;;5087383;28;20187;-82
2024/02/03 11:57:06;;;;;;;16.13;3.43;;;12.10;99.90;;;;;;5089786;28;20415;-83
2024/02/03 11:59:31;;;;;;;17.50;3.50;;;12.10;99.90;;;;;;5087416;28;20164;-83
2024/02/03 12:01:58;;;;;;;16.97;2.87;;;12.10;99.90;;;;;;5087609;28;20171;-83
2024/02/03 12:04:25;;;;;;;17.85;3.17;;;12.20;99.90;;;;;;5090925;28;20168;-83
2024/02/03 12:06:52;;;;;;;16.67;3.05;;;12.20;99.90;;;;;;5088301;28;20185;-82
2024/02/03 12:09:18;;;;;;;15.50;2.90;;;12.20;99.90;;;;;;5089604;28;20232;-82
2024/02/03 12:11:49;;;;;;;16.10;3.50;;;12.20;99.90;;;;;;5090707;28;20171;-83
2024/02/03 12:14:17;;;;;;;19.13;2.83;;;12.20;99.90;;;;;;5070934;28;20187;-82
2024/02/03 12:16:47;;;;;;;16.05;2.75;;;12.20;99.90;;;;;;5088727;28;20203;-83
2024/02/03 12:19:13;;;;;;;15.75;2.90;;;12.20;99.90;;;;;;5089832;28;20167;-83
2024/02/03 12:21:39;;;;;;;16.20;3.20;;;12.20;99.90;;;;;;5090038;28;20184;-83
2024/02/03 12:24:08;;;;;;;14.95;2.50;;;12.30;99.90;;;;;;5089609;28;20199;-83
2024/02/03 12:26:34;;;;;;;15.30;2.70;;;12.40;99.90;;;;;;5089353;28;20231;-83
2024/02/03 12:29:01;;;;;;;14.90;2.53;;;12.50;99.90;;;;;;5093612;28;20168;-83
2024/02/03 12:31:27;;;;;;;16.60;2.90;;;12.40;99.90;;;;;;5093235;28;20245;-83
2024/02/03 12:33:52;;;;;;;16.80;3.63;;;12.40;99.90;;;;;;5090237;28;20685;-82
2024/02/03 12:36:19;;;;;;;15.50;2.40;;;12.40;99.90;;;;;;5072346;28;20164;-83
2024/02/03 12:38:45;;;;;;;15.98;3.25;;;12.30;99.90;;;;;;5091486;28;20282;-83